Time;durP1;ratioP1;P1;durP2;ratioP2;P2;SDS_P1;SDS_P2;PMS_P1;PMS_P2;Temp;Humidity;BMP_temperature;BMP_pressure;BME280_temperature;BME280_humidity;BME280_pressure;Samples;Min_cycle;Max_cycle;Signal;HPM_P1;HPM_P2
2023/02/15 00:01:54;;;;;;;57.00;28.88;;;3.10;99.90;;;;;;4995950;28;20514;-88
2023/02/15 00:04:22;;;;;;;57.75;28.17;;;3.10;99.90;;;;;;4995883;28;20037;-88
2023/02/15 00:06:49;;;;;;;56.72;27.92;;;3.20;99.90;;;;;;4993039;28;20081;-89
2023/02/15 00:09:15;;;;;;;55.40;26.15;;;3.30;99.90;;;;;;4979951;28;20109;-88
2023/02/15 00:11:49;;;;;;;53.85;26.15;;;3.20;99.90;;;;;;4992075;28;20038;-88
2023/02/15 00:14:17;;;;;;;56.03;27.20;;;3.20;99.90;;;;;;4988236;28;20042;-88
2023/02/15 00:16:44;;;;;;;55.08;28.52;;;3.20;99.90;;;;;;4976542;28;20097;-89
2023/02/15 00:19:11;;;;;;;55.53;28.48;;;3.20;99.90;;;;;;4995515;28;20394;-88
2023/02/15 00:21:37;;;;;;;53.70;28.48;;;3.20;99.90;;;;;;4996097;28;20022;-89
2023/02/15 00:24:06;;;;;;;53.38;26.73;;;3.20;99.90;;;;;;4987886;28;20041;-88
2023/02/15 00:26:32;;;;;;;52.35;25.98;;;3.20;99.90;;;;;;4993309;28;20027;-89
2023/02/15 00:29:01;;;;;;;54.80;28.30;;;3.20;99.90;;;;;;4982858;28;20053;-89
2023/02/15 00:31:30;;;;;;;57.00;27.15;;;3.20;99.90;;;;;;4993989;28;20027;-88
2023/02/15 00:34:00;;;;;;;58.05;28.30;;;3.10;99.90;;;;;;4998494;28;20022;-88
2023/02/15 00:36:25;;;;;;;55.13;27.92;;;3.20;99.90;;;;;;5004636;28;20046;-88
2023/02/15 00:38:51;;;;;;;54.50;27.52;;;3.20;99.90;;;;;;5009120;28;20387;-88
2023/02/15 00:41:16;;;;;;;54.97;27.13;;;3.20;99.90;;;;;;4997149;28;20025;-88
2023/02/15 00:43:42;;;;;;;60.95;28.95;;;3.20;99.90;;;;;;4993224;28;20031;-88
2023/02/15 00:46:07;;;;;;;52.80;26.45;;;3.20;99.90;;;;;;5013379;28;20034;-88
2023/02/15 00:48:33;;;;;;;55.42;28.23;;;3.20;99.90;;;;;;4997212;28;20037;-88
2023/02/15 00:51:00;;;;;;;52.88;26.73;;;3.20;99.90;;;;;;5001244;28;20101;-88
2023/02/15 00:53:27;;;;;;;51.67;26.27;;;3.10;99.90;;;;;;4991348;28;20104;-88
2023/02/15 00:55:53;;;;;;;56.55;26.60;;;3.10;99.90;;;;;;4999786;28;20040;-89
2023/02/15 00:58:18;;;;;;;52.28;26.35;;;3.10;99.90;;;;;;4994682;28;20490;-88
2023/02/15 01:00:46;;;;;;;53.72;26.88;;;3.10;99.90;;;;;;5009742;28;20026;-88
2023/02/15 01:03:12;;;;;;;52.33;25.35;;;3.10;99.90;;;;;;4981246;28;20493;-88
2023/02/15 01:05:38;;;;;;;52.88;24.48;;;3.10;99.90;;;;;;4994585;28;20482;-88
2023/02/15 01:08:04;;;;;;;56.13;26.17;;;3.10;99.90;;;;;;4990650;28;20145;-88
2023/02/15 01:10:30;;;;;;;52.45;26.15;;;3.10;99.90;;;;;;4999871;28;20494;-89
2023/02/15 01:12:56;;;;;;;58.75;26.95;;;3.10;99.90;;;;;;5013833;28;20022;-88
2023/02/15 01:15:23;;;;;;;47.75;25.35;;;3.00;99.90;;;;;;4997361;28;20124;-87
2023/02/15 01:17:53;;;;;;;53.85;26.58;;;3.00;99.90;;;;;;4997870;28;20466;-88
2023/02/15 01:20:25;;;;;;;58.63;28.52;;;3.10;99.90;;;;;;4997435;28;20026;-89
2023/02/15 01:22:51;;;;;;;53.33;27.08;;;3.00;99.90;;;;;;4996641;28;20045;-88
2023/02/15 01:25:17;;;;;;;60.13;26.88;;;3.00;99.90;;;;;;5014686;28;20030;-89
2023/02/15 01:27:43;;;;;;;54.30;27.00;;;3.00;99.90;;;;;;4996145;28;20026;-88
2023/02/15 01:30:09;;;;;;;54.10;26.85;;;3.00;99.90;;;;;;4996686;28;20052;-88
2023/02/15 01:32:35;;;;;;;54.70;26.98;;;3.00;99.90;;;;;;4994413;28;20030;-88
2023/02/15 01:35:01;;;;;;;55.22;26.40;;;3.00;99.90;;;;;;5014443;28;20052;-89
2023/02/15 01:37:26;;;;;;;55.50;27.17;;;3.00;99.90;;;;;;5013894;28;20474;-88
2023/02/15 01:39:53;;;;;;;52.83;25.83;;;2.90;99.90;;;;;;4982829;28;20454;-88
2023/02/15 01:42:26;;;;;;;52.28;26.70;;;2.90;99.90;;;;;;5012383;28;20030;-88
2023/02/15 01:44:58;;;;;;;51.85;24.95;;;2.90;99.90;;;;;;4991240;28;20032;-88
2023/02/15 01:47:41;;;;;;;48.95;24.63;;;2.90;99.90;;;;;;5011949;28;20061;-88
2023/02/15 01:50:11;;;;;;;54.63;24.30;;;2.90;99.90;;;;;;5007118;28;20044;-88
2023/02/15 01:52:40;;;;;;;59.45;26.77;;;2.80;99.90;;;;;;5009259;28;20076;-89
2023/02/15 01:55:07;;;;;;;49.45;24.38;;;2.70;99.90;;;;;;4996693;28;20033;-89
2023/02/15 01:57:33;;;;;;;50.90;24.58;;;2.70;99.90;;;;;;4990507;28;20042;-88
2023/02/15 02:00:03;;;;;;;59.85;27.88;;;2.70;99.90;;;;;;4987801;28;20077;-88
2023/02/15 02:02:29;;;;;;;46.67;24.92;;;2.60;99.90;;;;;;4992986;28;20029;-89
2023/02/15 02:04:58;;;;;;;52.22;25.45;;;2.60;99.90;;;;;;4994586;28;20038;-89
2023/02/15 02:07:28;;;;;;;52.22;23.67;;;2.60;99.90;;;;;;5012837;28;20026;-88
2023/02/15 02:09:54;;;;;;;46.72;24.00;;;2.50;99.90;;;;;;5007803;28;20568;-89
2023/02/15 02:12:22;;;;;;;49.65;23.58;;;2.50;99.90;;;;;;5003968;28;20060;-88
2023/02/15 02:14:49;;;;;;;51.53;23.92;;;2.40;99.90;;;;;;4995399;28;20379;-88
2023/02/15 02:17:22;;;;;;;46.58;24.02;;;2.40;99.90;;;;;;5012219;28;20030;-88
2023/02/15 02:20:15;;;;;;;54.78;25.15;;;2.40;99.90;;;;;;5009637;28;20026;-88
2023/02/15 02:22:59;;;;;;;47.53;24.38;;;2.40;99.90;;;;;;4995203;28;20121;-88
2023/02/15 02:25:33;;;;;;;48.47;24.00;;;2.30;99.90;;;;;;5012486;28;20065;-88
2023/02/15 02:27:59;;;;;;;49.65;24.15;;;2.30;99.90;;;;;;5008580;28;20034;-89
2023/02/15 02:30:50;;;;;;;49.05;23.23;;;2.30;99.90;;;;;;5007163;28;20137;-88
2023/02/15 02:33:40;;;;;;;40.67;20.92;;;2.20;99.90;;;;;;4990849;28;20096;-88
2023/02/15 02:36:29;;;;;;;49.08;23.60;;;2.20;99.90;;;;;;5006452;28;20117;-88
2023/02/15 02:39:23;;;;;;;49.85;22.60;;;2.10;99.90;;;;;;5002315;28;20041;-88
2023/02/15 02:42:25;;;;;;;46.15;23.23;;;2.10;99.90;;;;;;5014054;28;20021;-89
2023/02/15 02:45:05;;;;;;;53.08;23.30;;;2.00;99.90;;;;;;5005093;28;20042;-89
2023/02/15 02:47:36;;;;;;;56.88;24.23;;;2.00;99.90;;;;;;4995299;28;20034;-88
2023/02/15 02:50:13;;;;;;;36.92;20.50;;;2.00;99.90;;;;;;5002295;28;20062;-89
2023/02/15 02:52:41;;;;;;;48.03;22.40;;;2.00;99.90;;;;;;4991713;28;20030;-88
2023/02/15 02:55:20;;;;;;;46.13;22.83;;;2.00;99.90;;;;;;4993186;28;20054;-89
2023/02/15 02:58:00;;;;;;;48.17;22.83;;;2.00;99.90;;;;;;5017119;28;20026;-89
2023/02/15 03:00:30;;;;;;;48.05;22.83;;;2.00;99.90;;;;;;4994877;28;20030;-88
2023/02/15 03:03:04;;;;;;;50.75;23.90;;;2.00;99.90;;;;;;4986697;28;20022;-88
2023/02/15 03:05:31;;;;;;;48.80;22.80;;;2.00;99.90;;;;;;4995226;28;20468;-88
2023/02/15 03:08:00;;;;;;;50.88;24.25;;;1.90;99.90;;;;;;4994698;28;20026;-89
2023/02/15 03:10:29;;;;;;;51.72;22.75;;;1.90;99.90;;;;;;5011784;28;20113;-88
2023/02/15 03:12:54;;;;;;;52.67;23.35;;;2.00;99.90;;;;;;4990358;28;20026;-89
2023/02/15 03:15:26;;;;;;;49.90;24.02;;;1.90;99.90;;;;;;5003527;28;20029;-89
2023/02/15 03:17:57;;;;;;;47.80;23.00;;;1.90;99.90;;;;;;4994599;28;20022;-88
2023/02/15 03:20:27;;;;;;;52.60;23.85;;;2.00;99.90;;;;;;5010292;28;20026;-88
2023/02/15 03:22:58;;;;;;;45.15;21.50;;;1.90;99.90;;;;;;4981046;28;20439;-88
2023/02/15 03:25:36;;;;;;;48.55;23.27;;;1.90;99.90;;;;;;4995103;28;20054;-89
2023/02/15 03:28:12;;;;;;;51.83;22.80;;;1.90;99.90;;;;;;5011738;28;20038;-88
2023/02/15 03:30:40;;;;;;;50.53;23.00;;;1.90;99.90;;;;;;5007916;28;20037;-89
2023/02/15 03:33:07;;;;;;;49.05;24.30;;;1.90;99.90;;;;;;5005869;28;20536;-89
2023/02/15 03:35:44;;;;;;;50.95;22.42;;;1.80;99.90;;;;;;4986927;28;20026;-88
2023/02/15 03:38:11;;;;;;;51.15;21.80;;;1.80;99.90;;;;;;5003252;28;20496;-89
2023/02/15 03:41:19;;;;;;;54.42;23.05;;;1.80;99.90;;;;;;4995078;28;20030;-88
2023/02/15 03:44:02;;;;;;;54.83;23.17;;;1.70;99.90;;;;;;5004569;28;20088;-89
2023/02/15 03:46:38;;;;;;;53.55;24.15;;;1.70;99.90;;;;;;5000284;28;20032;-88
2023/02/15 03:49:10;;;;;;;51.33;23.08;;;1.60;99.90;;;;;;5002076;28;20040;-88
2023/02/15 03:51:40;;;;;;;52.42;22.60;;;1.60;99.90;;;;;;4994904;28;20033;-88
2023/02/15 03:54:09;;;;;;;46.85;21.75;;;1.50;99.90;;;;;;4994451;28;20033;-88
2023/02/15 03:56:37;;;;;;;53.67;24.08;;;1.60;99.90;;;;;;5007643;28;20390;-89
2023/02/15 04:02:14;;;;;;;54.03;23.70;;;1.50;99.90;;;;;;5005360;28;20058;-89
2023/02/15 04:04:43;;;;;;;51.20;24.73;;;1.50;99.90;;;;;;5015596;28;20030;-89
2023/02/15 04:07:09;;;;;;;58.75;24.92;;;1.50;99.90;;;;;;5007380;28;20474;-89
2023/02/15 04:12:20;;;;;;;55.03;24.17;;;1.50;99.90;;;;;;5012395;28;20032;-89
2023/02/15 04:17:30;;;;;;;51.75;24.58;;;1.50;99.90;;;;;;5004041;28;20057;-89
2023/02/15 04:25:24;;;;;;;54.67;25.52;;;1.40;99.90;;;;;;5011119;28;20092;-89
2023/02/15 04:27:54;;;;;;;54.70;25.30;;;1.50;99.90;;;;;;5007348;28;20034;-88
2023/02/15 04:30:22;;;;;;;57.35;25.33;;;1.50;99.90;;;;;;5007155;28;20038;-88
2023/02/15 04:32:48;;;;;;;59.70;25.77;;;1.50;99.90;;;;;;5006027;28;20048;-88
2023/02/15 04:35:14;;;;;;;53.65;25.50;;;1.50;99.90;;;;;;5005879;28;20105;-88
2023/02/15 04:37:40;;;;;;;49.08;22.95;;;1.50;99.90;;;;;;5016852;28;20097;-89
2023/02/15 04:40:08;;;;;;;51.92;24.25;;;1.40;99.90;;;;;;5005682;28;20038;-89
2023/02/15 04:42:33;;;;;;;54.33;24.85;;;1.40;99.90;;;;;;5002643;28;20038;-89
2023/02/15 04:44:59;;;;;;;57.10;25.23;;;1.40;99.90;;;;;;4997907;28;20036;-89
2023/02/15 04:47:24;;;;;;;54.53;24.02;;;1.40;99.90;;;;;;4994840;28;20060;-88
2023/02/15 04:49:50;;;;;;;59.15;24.17;;;1.40;99.90;;;;;;4988338;28;20044;-89
2023/02/15 04:52:17;;;;;;;56.33;25.95;;;1.30;99.90;;;;;;5005549;28;20026;-89
2023/02/15 04:54:43;;;;;;;55.63;24.92;;;1.30;99.90;;;;;;5015208;28;20032;-89
2023/02/15 04:57:09;;;;;;;52.47;24.88;;;1.30;99.90;;;;;;5013581;28;20034;-89
2023/02/15 04:59:35;;;;;;;57.45;24.90;;;1.20;99.90;;;;;;5011493;28;20561;-89
2023/02/15 05:02:00;;;;;;;53.95;23.88;;;1.20;99.90;;;;;;5014905;28;20038;-89
2023/02/15 05:04:26;;;;;;;54.92;25.13;;;1.20;99.90;;;;;;5016893;28;20034;-89
2023/02/15 05:06:51;;;;;;;56.00;24.48;;;1.20;99.90;;;;;;5020076;28;20109;-88
2023/02/15 05:09:17;;;;;;;54.20;23.50;;;1.20;99.90;;;;;;4995850;28;20049;-89
2023/02/15 05:11:43;;;;;;;54.85;23.60;;;1.20;99.90;;;;;;4987016;28;20117;-89
2023/02/15 05:14:08;;;;;;;56.90;24.42;;;1.20;99.90;;;;;;4997348;28;20033;-89
2023/02/15 05:16:34;;;;;;;51.88;23.85;;;1.10;99.90;;;;;;4992832;28;20026;-89
2023/02/15 05:19:00;;;;;;;53.55;24.98;;;1.10;99.90;;;;;;4993262;28;20037;-89
2023/02/15 05:21:25;;;;;;;58.25;25.98;;;1.20;99.90;;;;;;4997079;28;20029;-89
2023/02/15 05:23:51;;;;;;;59.28;25.65;;;1.10;99.90;;;;;;4996980;28;20109;-89
2023/02/15 05:29:04;;;;;;;55.30;25.73;;;1.00;99.90;;;;;;5003668;28;20505;-89
2023/02/15 05:31:31;;;;;;;57.22;25.10;;;1.00;99.90;;;;;;4980513;28;20121;-89
2023/02/15 05:33:56;;;;;;;60.65;26.65;;;1.00;99.90;;;;;;4995994;28;20025;-89
2023/02/15 05:36:22;;;;;;;59.75;26.95;;;0.90;99.90;;;;;;5019138;28;20046;-89
2023/02/15 05:38:48;;;;;;;55.67;24.65;;;0.90;99.90;;;;;;4993217;28;20034;-90
2023/02/15 05:41:13;;;;;;;61.25;25.65;;;0.90;99.90;;;;;;4996947;28;20026;-88
2023/02/15 05:43:39;;;;;;;64.18;25.83;;;0.90;99.90;;;;;;4993096;28;20489;-89
2023/02/15 05:46:06;;;;;;;60.05;27.90;;;0.90;99.90;;;;;;4997035;28;20101;-89
2023/02/15 05:48:31;;;;;;;62.83;26.27;;;0.90;99.90;;;;;;4995804;28;20026;-89
2023/02/15 05:51:07;;;;;;;65.18;26.88;;;0.90;99.90;;;;;;4994390;28;20128;-89
2023/02/15 05:53:36;;;;;;;60.25;27.42;;;0.90;99.90;;;;;;4990627;28;20034;-89
2023/02/15 05:56:02;;;;;;;57.53;26.60;;;0.90;99.90;;;;;;5022730;28;20617;-89
2023/02/15 05:58:31;;;;;;;61.33;27.70;;;0.90;99.90;;;;;;5001694;28;20655;-90
2023/02/15 06:00:57;;;;;;;61.15;28.05;;;0.80;99.90;;;;;;4991430;28;20418;-88
2023/02/15 06:03:25;;;;;;;57.85;25.92;;;0.90;99.90;;;;;;4995509;28;20029;-89
2023/02/15 06:05:51;;;;;;;62.08;27.42;;;0.80;99.90;;;;;;4992265;28;20052;-89
2023/02/15 06:08:17;;;;;;;62.10;27.13;;;0.80;99.90;;;;;;5001482;28;20022;-90
2023/02/15 06:10:43;;;;;;;64.15;27.73;;;0.90;99.90;;;;;;4985403;28;20085;-91
2023/02/15 06:13:08;;;;;;;61.55;26.73;;;0.80;99.90;;;;;;4995549;28;20026;-90
2023/02/15 06:15:34;;;;;;;57.15;25.73;;;0.80;99.90;;;;;;5006102;28;20474;-89
2023/02/15 06:17:59;;;;;;;59.90;25.70;;;0.80;99.90;;;;;;5017449;28;20030;-89
2023/02/15 06:20:25;;;;;;;62.92;26.15;;;0.80;99.90;;;;;;5009004;28;20398;-90
2023/02/15 06:22:50;;;;;;;66.43;27.77;;;0.80;99.90;;;;;;5011860;28;20109;-89
2023/02/15 06:25:16;;;;;;;71.18;28.77;;;0.70;99.90;;;;;;5013706;28;20038;-90
2023/02/15 06:27:42;;;;;;;65.43;29.23;;;0.70;99.90;;;;;;5010417;28;20106;-89
2023/02/15 06:30:09;;;;;;;66.63;28.13;;;0.70;99.90;;;;;;4992790;28;20034;-90
2023/02/15 06:32:34;;;;;;;60.90;27.17;;;0.60;99.90;;;;;;4990953;28;20058;-89
2023/02/15 06:35:00;;;;;;;65.32;28.50;;;0.70;99.90;;;;;;4993920;28;20172;-89
2023/02/15 06:37:26;;;;;;;67.28;29.15;;;0.60;99.90;;;;;;4989537;28;20046;-90
2023/02/15 06:39:51;;;;;;;59.13;25.80;;;0.60;99.90;;;;;;5000480;28;20097;-89
2023/02/15 06:42:18;;;;;;;71.03;28.40;;;0.60;99.90;;;;;;4993530;28;20030;-90
2023/02/15 06:44:43;;;;;;;69.57;27.35;;;0.60;99.90;;;;;;5005437;28;20579;-89
2023/02/15 06:47:10;;;;;;;69.00;28.25;;;0.60;99.90;;;;;;5010251;28;20026;-89
2023/02/15 06:49:36;;;;;;;66.30;27.42;;;0.60;99.90;;;;;;4992910;28;20108;-89
2023/02/15 06:52:01;;;;;;;64.25;28.42;;;0.60;99.90;;;;;;4995853;28;20050;-89
2023/02/15 06:54:27;;;;;;;71.20;28.85;;;0.60;99.90;;;;;;4986501;28;20084;-90
2023/02/15 06:56:52;;;;;;;60.40;26.73;;;0.60;99.90;;;;;;5005671;28;20040;-89
2023/02/15 06:59:18;;;;;;;73.22;29.52;;;0.60;99.90;;;;;;5013067;28;20030;-90
2023/02/15 07:01:43;;;;;;;65.47;27.77;;;0.60;99.90;;;;;;5013019;28;20038;-89
2023/02/15 07:04:09;;;;;;;67.88;30.27;;;0.60;99.90;;;;;;5021816;28;20441;-89
2023/02/15 07:06:35;;;;;;;61.25;25.77;;;0.70;99.90;;;;;;4991156;28;20077;-89
2023/02/15 07:09:00;;;;;;;66.68;29.42;;;0.70;99.90;;;;;;4994326;28;20042;-89
2023/02/15 07:14:10;;;;;;;67.63;29.98;;;0.70;99.90;;;;;;5007960;28;20060;-90
2023/02/15 07:16:36;;;;;;;67.43;28.95;;;0.70;99.90;;;;;;4994523;28;20022;-90
2023/02/15 07:19:01;;;;;;;68.63;29.48;;;0.70;99.90;;;;;;4993553;28;20036;-89
2023/02/15 07:21:27;;;;;;;72.63;29.73;;;0.80;99.90;;;;;;4992146;28;20026;-89
2023/02/15 07:23:55;;;;;;;68.30;29.40;;;0.80;99.90;;;;;;4995840;28;20037;-89
2023/02/15 07:26:21;;;;;;;69.85;29.52;;;0.80;99.90;;;;;;4993729;28;20077;-89
2023/02/15 07:28:46;;;;;;;70.88;31.25;;;0.90;99.90;;;;;;4989552;28;20045;-90
2023/02/15 07:31:12;;;;;;;73.85;30.27;;;0.90;99.90;;;;;;5007312;28;20024;-89
2023/02/15 07:33:37;;;;;;;66.68;27.50;;;0.90;99.90;;;;;;4993072;28;20040;-90
2023/02/15 07:36:04;;;;;;;65.78;29.33;;;1.00;99.90;;;;;;5009307;28;20109;-90
2023/02/15 07:38:34;;;;;;;73.57;29.92;;;1.10;99.90;;;;;;4993912;28;20041;-88
2023/02/15 07:41:01;;;;;;;73.25;29.92;;;1.10;99.90;;;;;;4987786;28;20026;-89
2023/02/15 07:43:29;;;;;;;72.88;30.48;;;1.10;99.90;;;;;;4991909;28;20037;-89
2023/02/15 07:45:58;;;;;;;70.97;29.50;;;1.20;99.90;;;;;;5019315;28;20021;-89
2023/02/15 07:48:23;;;;;;;75.47;30.48;;;1.30;99.90;;;;;;4993978;28;20107;-89
2023/02/15 07:50:49;;;;;;;71.03;30.17;;;1.30;99.90;;;;;;5006880;28;20438;-89
2023/02/15 07:53:14;;;;;;;73.32;33.00;;;1.40;99.90;;;;;;4993484;28;20018;-89
2023/02/15 07:55:40;;;;;;;75.07;33.05;;;1.50;99.90;;;;;;4994332;28;20099;-89
2023/02/15 07:58:05;;;;;;;80.60;33.25;;;1.50;99.90;;;;;;4997828;28;20263;-89
2023/02/15 08:00:55;;;;;;;72.18;32.03;;;1.60;99.90;;;;;;5009683;28;20083;-89
2023/02/15 08:03:16;;;;;;;73.22;31.20;;;1.60;99.90;;;;;;5012971;28;20034;-89
2023/02/15 08:05:44;;;;;;;72.10;31.73;;;1.70;99.90;;;;;;4998491;28;20367;-89
2023/02/15 08:08:29;;;;;;;72.45;30.70;;;1.80;99.90;;;;;;4998092;28;20022;-90
2023/02/15 08:13:53;;;;;;;69.22;30.02;;;1.90;99.90;;;;;;5007732;28;20045;-89
2023/02/15 08:16:29;;;;;;;74.57;33.80;;;2.00;99.90;;;;;;4997015;28;20030;-90
2023/02/15 08:18:56;;;;;;;69.50;31.98;;;2.00;99.90;;;;;;4996384;28;20030;-89
2023/02/15 08:21:22;;;;;;;77.25;34.03;;;2.20;99.90;;;;;;4996154;28;20435;-90
2023/02/15 08:23:48;;;;;;;78.50;34.00;;;2.20;99.90;;;;;;4998422;28;20049;-90
2023/02/15 08:26:14;;;;;;;72.82;33.10;;;2.30;99.90;;;;;;5012358;28;20081;-90
2023/02/15 08:28:41;;;;;;;73.90;33.05;;;2.40;99.90;;;;;;4998040;28;20091;-89
2023/02/15 08:31:08;;;;;;;68.57;33.10;;;2.40;99.90;;;;;;4985089;28;20026;-90
2023/02/15 08:33:36;;;;;;;65.13;32.03;;;2.50;99.90;;;;;;4987888;28;20034;-89
2023/02/15 08:36:08;;;;;;;66.80;31.90;;;2.60;99.90;;;;;;5001576;28;20035;-90
2023/02/15 08:38:34;;;;;;;64.30;29.30;;;2.60;99.90;;;;;;4993305;28;20034;-90
2023/02/15 08:41:15;;;;;;;67.00;31.77;;;2.70;99.90;;;;;;4998504;28;20033;-90
2023/02/15 08:43:42;;;;;;;69.55;30.52;;;2.80;99.90;;;;;;5008248;28;20034;-90
2023/02/15 08:46:09;;;;;;;71.72;32.72;;;2.80;99.90;;;;;;4986444;28;20022;-90
2023/02/15 08:48:34;;;;;;;69.78;33.50;;;2.90;99.90;;;;;;4992785;28;20437;-89
2023/02/15 08:51:11;;;;;;;68.65;33.63;;;2.90;99.90;;;;;;4998714;28;20032;-89
2023/02/15 08:53:38;;;;;;;69.72;32.22;;;3.00;99.90;;;;;;4998368;28;20057;-89
2023/02/15 08:56:04;;;;;;;66.20;32.10;;;3.10;99.90;;;;;;5014840;28;20036;-89
2023/02/15 08:58:33;;;;;;;68.70;34.42;;;3.20;99.90;;;;;;5010435;28;20033;-89
2023/02/15 09:00:58;;;;;;;77.35;36.20;;;3.30;99.90;;;;;;4999051;28;20030;-89
2023/02/15 09:03:24;;;;;;;70.72;34.58;;;3.40;99.90;;;;;;5012948;28;20041;-88
2023/02/15 09:05:50;;;;;;;65.18;31.95;;;3.60;99.90;;;;;;4986454;28;20550;-89
2023/02/15 09:08:16;;;;;;;73.07;34.33;;;3.70;99.90;;;;;;5000880;28;20024;-90
2023/02/15 09:10:42;;;;;;;74.95;35.03;;;3.80;99.90;;;;;;5006479;28;20033;-89
2023/02/15 09:13:07;;;;;;;78.43;32.85;;;3.90;99.90;;;;;;5009900;28;20026;-90
2023/02/15 09:15:33;;;;;;;73.90;30.45;;;4.00;99.90;;;;;;5010324;28;20037;-90
2023/02/15 09:18:01;;;;;;;62.45;29.48;;;4.20;99.90;;;;;;5015085;28;20023;-90
2023/02/15 09:20:27;;;;;;;68.07;33.08;;;4.30;99.90;;;;;;4991155;28;20022;-92
2023/02/15 09:22:54;;;;;;;61.85;31.48;;;4.30;99.90;;;;;;5022528;28;20117;-91
2023/02/15 09:25:20;;;;;;;61.30;32.55;;;4.40;99.90;;;;;;5006687;28;20041;-90
2023/02/15 09:27:45;;;;;;;71.65;33.20;;;4.50;99.90;;;;;;4996390;28;20068;-89
2023/02/15 09:30:12;;;;;;;67.97;33.63;;;4.60;99.90;;;;;;4989643;28;20506;-90
2023/02/15 09:32:37;;;;;;;80.05;34.45;;;4.60;99.90;;;;;;4994765;28;20030;-90
2023/02/15 09:35:03;;;;;;;66.25;33.55;;;4.70;99.90;;;;;;5009950;28;20536;-91
2023/02/15 09:37:31;;;;;;;66.53;32.88;;;4.80;99.90;;;;;;5012670;28;20569;-92
2023/02/15 09:39:57;;;;;;;69.85;32.78;;;5.00;99.90;;;;;;4989780;28;20029;-91
2023/02/15 09:42:46;;;;;;;63.03;33.35;;;5.10;99.90;;;;;;4992494;28;20022;-90
2023/02/15 09:45:18;;;;;;;63.47;31.95;;;5.20;99.90;;;;;;4992255;28;20023;-90
2023/02/15 09:48:19;;;;;;;66.97;33.63;;;5.30;99.90;;;;;;5010852;28;20030;-91
2023/02/15 09:51:03;;;;;;;56.15;32.13;;;5.30;99.90;;;;;;4994615;28;20038;-91
2023/02/15 09:53:50;;;;;;;58.95;30.27;;;5.40;99.90;;;;;;5006451;28;20375;-90
2023/02/15 09:56:37;;;;;;;61.58;30.27;;;5.50;99.90;;;;;;4987792;28;20033;-91
2023/02/15 09:59:25;;;;;;;58.63;31.60;;;5.60;99.90;;;;;;4994747;28;20025;-91
2023/02/15 10:02:14;;;;;;;59.50;29.92;;;5.70;99.90;;;;;;4993755;28;20058;-90
2023/02/15 10:05:00;;;;;;;59.45;31.38;;;5.90;99.90;;;;;;5002728;28;20060;-89
2023/02/15 10:07:34;;;;;;;56.33;31.40;;;5.90;99.90;;;;;;4987461;28;20057;-89
2023/02/15 10:10:00;;;;;;;57.92;32.25;;;6.00;99.90;;;;;;5014252;28;20121;-89
2023/02/15 10:12:47;;;;;;;57.00;31.80;;;6.10;99.90;;;;;;4993677;28;20432;-90
2023/02/15 10:15:35;;;;;;;58.83;32.20;;;6.20;99.90;;;;;;4990633;28;20022;-90
2023/02/15 10:18:06;;;;;;;60.00;32.00;;;6.30;99.90;;;;;;4991438;28;20045;-90
2023/02/15 10:20:39;;;;;;;62.13;33.10;;;6.40;99.90;;;;;;5012347;28;20026;-89
2023/02/15 10:23:37;;;;;;;58.63;31.88;;;6.50;99.90;;;;;;5004543;28;20022;-89
2023/02/15 10:26:18;;;;;;;58.58;31.67;;;6.60;99.90;;;;;;4959625;28;20121;-89
2023/02/15 10:29:19;;;;;;;60.38;32.30;;;6.70;99.90;;;;;;4992212;28;20441;-89
2023/02/15 10:31:53;;;;;;;61.10;32.42;;;6.80;99.90;;;;;;5007880;28;20458;-88
2023/02/15 10:34:30;;;;;;;64.00;33.72;;;6.90;99.90;;;;;;5012419;28;20434;-89
2023/02/15 10:37:20;;;;;;;61.75;32.95;;;6.90;99.90;;;;;;4990942;28;20049;-89
2023/02/15 10:40:06;;;;;;;57.58;32.22;;;7.00;99.90;;;;;;4993679;28;20030;-88
2023/02/15 10:43:06;;;;;;;64.05;34.00;;;7.10;99.90;;;;;;5003502;28;20029;-89
2023/02/15 10:45:54;;;;;;;56.50;31.85;;;7.20;99.90;;;;;;4990565;28;20030;-90
2023/02/15 10:48:46;;;;;;;53.05;30.38;;;7.30;99.90;;;;;;5007816;28;20030;-88
2023/02/15 10:51:23;;;;;;;54.17;30.87;;;7.40;99.90;;;;;;5013146;28;20593;-89
2023/02/15 10:53:51;;;;;;;60.95;32.58;;;7.50;99.90;;;;;;4995353;28;20510;-89
2023/02/15 10:56:39;;;;;;;60.50;31.77;;;7.50;99.90;;;;;;5004082;28;20026;-89
2023/02/15 10:59:42;;;;;;;53.83;30.50;;;7.60;99.90;;;;;;4995313;28;20026;-89
2023/02/15 11:02:46;;;;;;;58.72;30.88;;;7.80;99.90;;;;;;4982305;28;20133;-89
2023/02/15 11:05:59;;;;;;;60.67;31.58;;;7.90;99.90;;;;;;5013525;28;20053;-90
2023/02/15 11:08:26;;;;;;;55.75;30.55;;;8.00;99.90;;;;;;4982509;28;20406;-89
2023/02/15 11:10:58;;;;;;;54.67;30.77;;;8.10;99.90;;;;;;5025652;28;20038;-90
2023/02/15 11:13:28;;;;;;;53.80;30.35;;;8.30;99.90;;;;;;4995638;28;20111;-89
2023/02/15 11:15:55;;;;;;;55.53;29.58;;;8.40;99.90;;;;;;4995674;28;20048;-89
2023/02/15 11:18:30;;;;;;;48.95;28.90;;;8.50;99.90;;;;;;4994963;28;20057;-90
2023/02/15 11:21:10;;;;;;;51.72;30.45;;;8.50;99.90;;;;;;5007252;28;20173;-89
2023/02/15 11:23:42;;;;;;;58.30;31.42;;;8.60;99.90;;;;;;5001267;28;20790;-88
2023/02/15 11:26:16;;;;;;;56.50;29.92;;;8.80;99.90;;;;;;5005941;28;20041;-86
2023/02/15 11:28:54;;;;;;;50.65;29.38;;;8.90;99.90;;;;;;5000585;28;20026;-88
2023/02/15 11:31:23;;;;;;;53.95;30.60;;;9.10;99.90;;;;;;5010889;28;20513;-87
2023/02/15 11:34:15;;;;;;;52.42;29.90;;;9.20;99.90;;;;;;4994853;28;20031;-87
2023/02/15 11:36:44;;;;;;;54.38;30.05;;;9.40;99.90;;;;;;4989406;28;20095;-88
2023/02/15 11:39:17;;;;;;;50.15;29.63;;;9.50;99.90;;;;;;5009102;28;20030;-88
2023/02/15 11:41:51;;;;;;;53.28;29.38;;;9.70;99.90;;;;;;5003140;28;20109;-88
2023/02/15 11:44:27;;;;;;;49.28;27.70;;;9.80;99.90;;;;;;4985763;28;20027;-87
2023/02/15 11:46:53;;;;;;;47.88;27.75;;;10.00;99.90;;;;;;5007019;28;20029;-88
2023/02/15 11:49:27;;;;;;;45.22;25.42;;;10.00;99.90;;;;;;5008768;28;20025;-87
2023/02/15 11:51:55;;;;;;;53.15;27.73;;;10.10;99.90;;;;;;5007018;28;20117;-85
2023/02/15 11:54:26;;;;;;;46.35;26.75;;;10.10;99.90;;;;;;4994677;28;20033;-89
2023/02/15 11:56:52;;;;;;;50.60;28.13;;;10.20;99.90;;;;;;5009942;28;20030;-88
2023/02/15 11:59:29;;;;;;;47.90;25.85;;;10.30;99.90;;;;;;4998875;28;20038;-89
2023/02/15 12:01:55;;;;;;;46.33;27.45;;;10.40;99.90;;;;;;4992626;28;20476;-90
2023/02/15 12:04:32;;;;;;;48.83;26.92;;;10.50;99.90;;;;;;5006267;28;20112;-89
2023/02/15 12:07:07;;;;;;;49.15;26.73;;;10.60;99.90;;;;;;4986227;28;20030;-89
2023/02/15 12:09:56;;;;;;;47.65;26.00;;;10.70;99.90;;;;;;5009580;28;20038;-88
2023/02/15 12:12:33;;;;;;;45.38;25.27;;;10.80;99.90;;;;;;5015093;28;20022;-89
2023/02/15 12:15:09;;;;;;;44.83;26.33;;;10.90;99.90;;;;;;4994153;28;20026;-88
2023/02/15 12:17:52;;;;;;;47.30;26.63;;;10.90;99.90;;;;;;4994290;28;20067;-89
2023/02/15 12:20:18;;;;;;;44.50;25.48;;;11.00;99.90;;;;;;4994519;28;20042;-89
2023/02/15 12:23:03;;;;;;;43.38;25.13;;;11.10;99.90;;;;;;5004671;28;20037;-89
2023/02/15 12:25:55;;;;;;;47.33;26.50;;;11.20;99.90;;;;;;4992722;28;20029;-90
2023/02/15 12:28:43;;;;;;;47.63;27.75;;;11.30;99.90;;;;;;4993314;28;20053;-90
2023/02/15 12:31:41;;;;;;;45.85;24.58;;;11.40;99.90;;;;;;4995516;28;20042;-89
2023/02/15 12:34:18;;;;;;;44.00;24.85;;;11.40;99.90;;;;;;4992782;28;20044;-90
2023/02/15 12:36:50;;;;;;;41.38;24.77;;;11.60;99.90;;;;;;5001999;28;20042;-90
2023/02/15 12:39:32;;;;;;;50.28;26.00;;;11.70;99.90;;;;;;4990992;28;20022;-91
2023/02/15 12:42:03;;;;;;;45.90;26.77;;;11.80;99.90;;;;;;4990429;28;20058;-91
2023/02/15 12:44:34;;;;;;;41.45;24.77;;;11.90;99.90;;;;;;4986777;28;20754;-90
2023/02/15 12:47:16;;;;;;;44.95;24.35;;;12.10;99.90;;;;;;5012082;28;20026;-91
2023/02/15 12:49:43;;;;;;;45.47;24.30;;;12.20;99.90;;;;;;4997867;28;20084;-91
2023/02/15 12:52:17;;;;;;;44.75;24.58;;;12.20;99.90;;;;;;4992996;28;20026;-90
2023/02/15 12:54:44;;;;;;;44.50;25.42;;;12.30;99.90;;;;;;4998492;28;20096;-89
2023/02/15 12:57:25;;;;;;;43.28;24.98;;;12.30;99.90;;;;;;4998711;28;20048;-90
2023/02/15 13:00:19;;;;;;;46.72;25.50;;;12.40;99.90;;;;;;5017130;28;20109;-90
2023/02/15 13:02:52;;;;;;;41.40;24.02;;;12.50;99.90;;;;;;4990643;28;20042;-89
2023/02/15 13:05:36;;;;;;;45.85;25.83;;;12.50;99.90;;;;;;5029115;28;20026;-89
2023/02/15 13:08:15;;;;;;;45.97;23.48;;;12.50;99.90;;;;;;5012657;28;20034;-90
2023/02/15 13:11:06;;;;;;;46.90;26.27;;;12.50;99.90;;;;;;4984179;28;20057;-90
2023/02/15 13:13:35;;;;;;;41.42;24.75;;;12.50;99.90;;;;;;4997795;28;20022;-90
2023/02/15 13:16:09;;;;;;;46.10;26.40;;;12.60;99.90;;;;;;5015332;28;20108;-90
2023/02/15 13:18:43;;;;;;;41.42;23.83;;;12.70;99.90;;;;;;4997049;28;20426;-91
2023/02/15 13:21:21;;;;;;;44.47;24.48;;;12.80;99.90;;;;;;5005024;28;20080;-90